Time;durP1;ratioP1;P1;durP2;ratioP2;P2;SDS_P1;SDS_P2;PMS_P1;PMS_P2;Temp;Humidity;BMP_temperature;BMP_pressure;BME280_temperature;BME280_humidity;BME280_pressure;Samples;Min_cycle;Max_cycle;Signal;HPM_P1;HPM_P2
2022/02/16 05:00:53;;;;;;;4.75;4.35;;;7.30;99.90;;;;;;5708741;23;20232;-67
2022/02/16 05:03:19;;;;;;;3.92;3.60;;;7.30;99.90;;;;;;4944091;29;20244;-67
2022/02/16 05:05:46;;;;;;;4.65;4.25;;;7.30;99.90;;;;;;4939858;28;20292;-67
2022/02/16 05:08:13;;;;;;;3.50;3.30;;;7.20;99.90;;;;;;4938136;29;20267;-67
2022/02/16 05:10:39;;;;;;;3.92;3.60;;;7.20;99.90;;;;;;4950572;28;20695;-67
2022/02/16 05:13:06;;;;;;;4.22;3.42;;;7.20;99.90;;;;;;4924185;29;20213;-67
2022/02/16 05:15:33;;;;;;;3.72;3.42;;;7.20;99.90;;;;;;4931612;29;20363;-67
2022/02/16 05:18:01;;;;;;;3.85;3.13;;;7.20;99.90;;;;;;4928574;29;20614;-68
2022/02/16 05:20:28;;;;;;;3.40;3.25;;;7.20;99.90;;;;;;4915866;29;20206;-68
2022/02/16 05:22:54;;;;;;;3.70;3.50;;;7.20;99.90;;;;;;4941234;23;20202;-71
2022/02/16 05:25:21;;;;;;;3.05;2.90;;;7.20;99.90;;;;;;4953742;28;20240;-71
2022/02/16 05:27:48;;;;;;;3.40;3.30;;;7.20;99.90;;;;;;4952331;28;20669;-71
2022/02/16 05:30:14;;;;;;;2.75;2.55;;;7.20;99.90;;;;;;4952022;28;20209;-71
2022/02/16 05:32:41;;;;;;;2.92;2.83;;;7.20;99.90;;;;;;4950609;28;20208;-73
2022/02/16 05:35:10;;;;;;;3.30;3.10;;;7.20;99.90;;;;;;4972274;28;20236;-71
2022/02/16 05:37:37;;;;;;;2.22;2.15;;;7.20;99.90;;;;;;4953288;28;20225;-71
2022/02/16 05:40:05;;;;;;;2.75;2.60;;;7.20;99.90;;;;;;4952587;28;20315;-71
2022/02/16 05:42:32;;;;;;;2.92;2.83;;;7.20;99.90;;;;;;4953152;28;20582;-70
2022/02/16 05:44:59;;;;;;;2.65;2.55;;;7.20;99.90;;;;;;4952332;28;20233;-71
2022/02/16 05:47:25;;;;;;;2.65;2.55;;;7.20;99.90;;;;;;4957686;28;20272;-72
2022/02/16 05:49:52;;;;;;;3.03;2.83;;;7.20;99.90;;;;;;4973172;28;20266;-71
2022/02/16 05:52:20;;;;;;;2.30;2.20;;;7.20;99.90;;;;;;4956813;28;20205;-71
2022/02/16 05:54:46;;;;;;;3.28;3.17;;;7.20;99.90;;;;;;4962041;28;20217;-68
2022/02/16 05:57:13;;;;;;;2.80;2.70;;;7.20;99.90;;;;;;4953860;28;20209;-72
2022/02/16 05:59:40;;;;;;;2.38;2.22;;;7.10;99.90;;;;;;4956538;28;20262;-71
2022/02/16 06:02:07;;;;;;;2.55;2.40;;;7.10;99.90;;;;;;4939276;28;20299;-71
2022/02/16 06:04:34;;;;;;;3.40;3.10;;;7.10;99.90;;;;;;4961646;28;20311;-71
2022/02/16 06:07:01;;;;;;;3.35;3.15;;;7.10;99.90;;;;;;4958614;28;20302;-71
2022/02/16 06:09:29;;;;;;;2.97;2.88;;;7.00;99.90;;;;;;4961504;28;20208;-72
2022/02/16 06:11:56;;;;;;;3.28;3.08;;;7.00;99.90;;;;;;4955768;28;20264;-72
2022/02/16 06:14:23;;;;;;;2.90;2.70;;;7.00;99.90;;;;;;4955709;28;20232;-71
2022/02/16 06:16:49;;;;;;;2.60;2.50;;;7.00;99.90;;;;;;4963288;28;20664;-71
2022/02/16 06:19:16;;;;;;;2.63;2.53;;;7.00;99.90;;;;;;4966079;28;20689;-72
2022/02/16 06:21:44;;;;;;;2.95;2.85;;;7.00;99.90;;;;;;4953711;28;20782;-71
2022/02/16 06:24:11;;;;;;;2.80;2.70;;;7.00;99.90;;;;;;4958823;28;20312;-72
2022/02/16 06:26:39;;;;;;;1.83;1.83;;;7.00;99.90;;;;;;4965056;28;20301;-71
2022/02/16 06:29:06;;;;;;;2.33;2.28;;;7.10;99.90;;;;;;4950283;28;20201;-71
2022/02/16 06:31:33;;;;;;;2.40;2.20;;;7.20;99.90;;;;;;4957065;28;20638;-71
2022/02/16 06:33:59;;;;;;;2.83;2.75;;;7.10;99.90;;;;;;4956017;28;20249;-71
2022/02/16 06:36:26;;;;;;;2.05;2.05;;;7.10;99.90;;;;;;4970652;28;20216;-72
2022/02/16 06:38:53;;;;;;;2.50;2.30;;;7.10;99.90;;;;;;4957292;28;20268;-71
2022/02/16 06:41:21;;;;;;;9.43;8.45;;;7.10;99.90;;;;;;4957592;28;20220;-71
2022/02/16 06:43:49;;;;;;;51.83;27.10;;;7.10;99.90;;;;;;4957348;28;20230;-71
2022/02/16 06:46:16;;;;;;;73.70;43.42;;;7.10;99.90;;;;;;4964874;28;20664;-72
2022/02/16 06:48:43;;;;;;;9.40;8.52;;;7.10;99.90;;;;;;4948408;28;20659;-72
2022/02/16 06:51:09;;;;;;;14.38;12.85;;;7.10;99.90;;;;;;4950526;28;20205;-73
2022/02/16 06:53:36;;;;;;;7.80;7.03;;;7.00;99.90;;;;;;4953721;28;20236;-73
2022/02/16 06:56:03;;;;;;;16.35;10.68;;;7.10;99.90;;;;;;4955178;28;20213;-73
2022/02/16 06:58:31;;;;;;;5.40;5.00;;;7.00;99.90;;;;;;4949871;28;20721;-72
2022/02/16 07:00:59;;;;;;;6.38;5.78;;;7.00;99.90;;;;;;4956223;28;20205;-74
2022/02/16 07:03:26;;;;;;;3.10;2.92;;;7.00;99.90;;;;;;4956920;28;20221;-73
2022/02/16 07:05:52;;;;;;;4.75;3.42;;;7.00;99.90;;;;;;4955480;28;20208;-73
2022/02/16 07:08:19;;;;;;;3.50;3.35;;;7.00;99.90;;;;;;4954323;28;20224;-74
2022/02/16 07:10:46;;;;;;;3.40;3.30;;;7.10;99.90;;;;;;4963731;28;20297;-74
2022/02/16 07:13:13;;;;;;;3.67;3.58;;;7.10;99.90;;;;;;4974372;28;20228;-74
2022/02/16 07:15:40;;;;;;;4.90;3.10;;;7.10;99.90;;;;;;4965580;28;20597;-73
2022/02/16 07:18:08;;;;;;;4.22;3.92;;;7.10;99.90;;;;;;4957855;28;20616;-72
2022/02/16 07:20:34;;;;;;;3.05;2.95;;;7.10;99.90;;;;;;4966035;28;20598;-71
2022/02/16 07:23:01;;;;;;;3.60;3.40;;;7.10;99.90;;;;;;4942355;29;20612;-73
2022/02/16 07:25:28;;;;;;;3.55;3.35;;;7.10;99.90;;;;;;4960120;28;20248;-73
2022/02/16 07:27:54;;;;;;;4.35;4.00;;;7.10;99.90;;;;;;4954472;28;20217;-73
2022/02/16 07:30:21;;;;;;;3.50;3.30;;;7.10;99.90;;;;;;4950183;28;20214;-73
2022/02/16 07:32:48;;;;;;;3.30;3.10;;;7.20;99.90;;;;;;4951204;28;20227;-73
2022/02/16 07:35:16;;;;;;;4.05;3.85;;;7.20;99.90;;;;;;4965575;28;20660;-73
2022/02/16 07:37:44;;;;;;;3.38;3.28;;;7.20;99.90;;;;;;4968691;28;20708;-73
2022/02/16 07:40:11;;;;;;;5.13;4.78;;;7.20;99.90;;;;;;4967828;28;20259;-73
2022/02/16 07:42:38;;;;;;;3.17;3.08;;;7.20;99.90;;;;;;4969797;28;20208;-73
2022/02/16 07:45:06;;;;;;;3.03;2.92;;;7.20;99.90;;;;;;4955771;28;20273;-73
2022/02/16 07:47:33;;;;;;;4.00;3.70;;;7.20;99.90;;;;;;4953176;28;20242;-73
2022/02/16 07:50:00;;;;;;;2.65;2.55;;;7.30;99.90;;;;;;4953725;28;20269;-72
2022/02/16 07:52:28;;;;;;;4.85;3.83;;;7.30;99.90;;;;;;4972341;28;20681;-74
2022/02/16 07:54:55;;;;;;;2.80;2.70;;;7.30;99.90;;;;;;4946487;29;20258;-74
2022/02/16 07:57:21;;;;;;;2.13;2.13;;;7.30;99.90;;;;;;4970836;28;20212;-73
2022/02/16 07:59:48;;;;;;;1.88;1.80;;;7.30;99.90;;;;;;4950457;28;20217;-73
2022/02/16 08:02:15;;;;;;;2.65;2.58;;;7.30;99.90;;;;;;4951181;28;20268;-73
2022/02/16 08:04:41;;;;;;;2.47;2.38;;;7.30;99.90;;;;;;4952797;28;20288;-73
2022/02/16 08:07:08;;;;;;;1.95;1.85;;;7.30;99.90;;;;;;4944294;28;20305;-73
2022/02/16 08:09:36;;;;;;;2.55;2.45;;;7.30;99.90;;;;;;4945883;28;20212;-73
2022/02/16 08:12:03;;;;;;;2.10;2.00;;;7.30;99.90;;;;;;4947859;28;20217;-74
2022/02/16 08:14:33;;;;;;;2.45;2.35;;;7.30;99.90;;;;;;4949005;29;20729;-74
2022/02/16 08:17:01;;;;;;;2.22;2.22;;;7.30;99.90;;;;;;4949332;28;20266;-72
2022/02/16 08:19:28;;;;;;;1.98;1.90;;;7.30;99.90;;;;;;4957138;28;20292;-74
2022/02/16 08:21:57;;;;;;;1.88;1.88;;;7.30;99.90;;;;;;4956262;28;20204;-73
2022/02/16 08:24:25;;;;;;;2.22;2.10;;;7.40;99.90;;;;;;4955727;28;20256;-72
2022/02/16 08:26:53;;;;;;;10.35;7.90;;;7.40;99.90;;;;;;4953173;28;20210;-73
2022/02/16 08:29:20;;;;;;;8.07;7.28;;;7.40;99.90;;;;;;4951701;28;20209;-72
2022/02/16 08:31:46;;;;;;;3.83;3.63;;;7.40;99.90;;;;;;4944852;28;20640;-72
2022/02/16 08:34:14;;;;;;;2.67;2.58;;;7.50;99.90;;;;;;4949295;28;20639;-73
2022/02/16 08:36:41;;;;;;;2.83;2.72;;;7.50;99.90;;;;;;4939671;28;20209;-72
2022/02/16 08:39:08;;;;;;;3.00;2.80;;;7.50;99.90;;;;;;4949802;28;20204;-73
2022/02/16 08:41:34;;;;;;;2.33;2.22;;;7.50;99.90;;;;;;4937628;29;20284;-72
2022/02/16 08:44:02;;;;;;;2.40;2.30;;;7.50;99.90;;;;;;4951833;29;20276;-72
2022/02/16 08:46:29;;;;;;;2.40;2.30;;;7.50;99.90;;;;;;4948768;29;20599;-72
2022/02/16 08:49:00;;;;;;;2.50;2.30;;;7.50;99.90;;;;;;4945893;28;20201;-73
2022/02/16 08:51:27;;;;;;;2.88;2.20;;;7.60;99.90;;;;;;4947734;28;20819;-73
2022/02/16 08:53:54;;;;;;;2.38;2.28;;;7.60;99.90;;;;;;4951262;28;20225;-73
2022/02/16 08:56:20;;;;;;;2.88;2.78;;;7.60;99.90;;;;;;4970067;28;20205;-74
2022/02/16 08:58:47;;;;;;;1.50;1.50;;;7.70;99.90;;;;;;4971760;28;20212;-72
2022/02/16 09:01:15;;;;;;;1.83;1.83;;;7.60;99.90;;;;;;4971904;28;20213;-73
2022/02/16 09:03:42;;;;;;;2.28;2.28;;;7.60;99.90;;;;;;4971883;28;20239;-73
2022/02/16 09:06:10;;;;;;;1.80;1.80;;;7.70;99.90;;;;;;4959861;28;20229;-73
2022/02/16 09:08:37;;;;;;;2.20;2.10;;;7.70;99.90;;;;;;4951896;28;20213;-74
2022/02/16 09:11:03;;;;;;;2.08;2.08;;;7.70;99.90;;;;;;4952656;28;20209;-73
2022/02/16 09:13:30;;;;;;;1.90;1.90;;;7.70;99.90;;;;;;4953036;28;20229;-73
2022/02/16 09:15:57;;;;;;;1.50;1.50;;;7.70;99.90;;;;;;4953477;28;20223;-72
2022/02/16 09:18:25;;;;;;;1.38;1.38;;;7.70;99.90;;;;;;4952499;28;20213;-73
2022/02/16 09:20:52;;;;;;;2.00;2.00;;;7.80;99.90;;;;;;4946334;28;20615;-73
2022/02/16 09:23:19;;;;;;;1.50;1.40;;;7.80;99.90;;;;;;4951432;28;20315;-73
2022/02/16 09:25:46;;;;;;;1.80;1.80;;;7.80;99.90;;;;;;4952579;28;20277;-73
2022/02/16 09:28:13;;;;;;;1.40;1.40;;;7.80;99.90;;;;;;4952260;28;20627;-74
2022/02/16 09:30:39;;;;;;;1.08;1.08;;;7.90;99.90;;;;;;4952372;28;20250;-73
2022/02/16 09:33:06;;;;;;;0.80;0.80;;;7.90;99.90;;;;;;4951695;28;20302;-73
2022/02/16 09:35:34;;;;;;;1.30;1.30;;;7.90;99.90;;;;;;4933239;29;20563;-73
2022/02/16 09:38:01;;;;;;;1.38;1.38;;;7.90;99.90;;;;;;4932288;29;20214;-73
2022/02/16 09:40:30;;;;;;;1.83;1.73;;;7.90;99.90;;;;;;4934362;29;20221;-74
2022/02/16 09:43:00;;;;;;;1.85;1.20;;;7.90;99.90;;;;;;4945173;28;20268;-73
2022/02/16 09:45:30;;;;;;;1.20;1.20;;;8.00;99.90;;;;;;4952222;28;20311;-73
2022/02/16 09:47:56;;;;;;;1.05;1.05;;;8.00;99.90;;;;;;4951396;28;20213;-72
2022/02/16 09:50:23;;;;;;;1.20;1.20;;;8.00;99.90;;;;;;4943427;28;20206;-73
2022/02/16 09:52:51;;;;;;;1.33;1.33;;;8.00;99.90;;;;;;4938060;29;20305;-70
2022/02/16 09:55:18;;;;;;;1.30;1.30;;;8.00;99.90;;;;;;4952333;28;20201;-72
2022/02/16 09:57:45;;;;;;;1.23;1.23;;;8.00;99.90;;;;;;4952062;28;20213;-74
2022/02/16 10:00:15;;;;;;;1.38;1.27;;;8.10;99.90;;;;;;4952380;28;20365;-72
2022/02/16 10:02:44;;;;;;;1.00;1.00;;;8.10;99.90;;;;;;4951314;28;20666;-74
2022/02/16 10:05:12;;;;;;;0.90;0.90;;;8.10;99.90;;;;;;4952238;28;20221;-73
2022/02/16 10:07:41;;;;;;;0.88;0.88;;;8.20;99.90;;;;;;4951067;28;20216;-72
2022/02/16 10:10:14;;;;;;;4.38;1.60;;;8.20;99.90;;;;;;4952127;28;20213;-73
2022/02/16 10:12:44;;;;;;;0.88;0.88;;;8.20;99.90;;;;;;4951875;28;20276;-74
2022/02/16 10:15:11;;;;;;;0.57;0.57;;;8.20;99.90;;;;;;4949833;28;20209;-72
2022/02/16 10:17:38;;;;;;;1.60;1.58;;;8.30;99.90;;;;;;4933031;29;20209;-74
2022/02/16 10:20:07;;;;;;;1.70;1.60;;;8.30;99.90;;;;;;4946335;29;20209;-73
2022/02/16 10:22:41;;;;;;;1.55;1.50;;;8.40;99.90;;;;;;4951075;28;20670;-73
2022/02/16 10:25:18;;;;;;;0.77;0.77;;;8.40;99.90;;;;;;4952036;28;20228;-74
2022/02/16 10:28:10;;;;;;;1.17;0.60;;;8.40;99.90;;;;;;4951674;28;20205;-73
2022/02/16 10:30:42;;;;;;;0.40;0.40;;;8.50;99.90;;;;;;4950836;28;20213;-72
2022/02/16 10:33:23;;;;;;;0.57;0.57;;;8.50;99.90;;;;;;4954820;28;20229;-72
2022/02/16 10:35:57;;;;;;;0.90;0.90;;;8.50;99.90;;;;;;4952150;28;20205;-74
2022/02/16 10:38:24;;;;;;;1.35;0.70;;;8.60;99.90;;;;;;4953139;28;20236;-75
2022/02/16 10:41:01;;;;;;;2.65;1.17;;;8.60;99.90;;;;;;4955155;28;20605;-69
2022/02/16 10:43:33;;;;;;;0.40;0.40;;;8.80;99.90;;;;;;4949809;28;20574;-73
2022/02/16 10:45:59;;;;;;;0.60;0.60;;;8.80;99.90;;;;;;4936283;29;20643;-75
2022/02/16 10:48:26;;;;;;;0.90;0.90;;;8.80;99.90;;;;;;4938767;29;20213;-74
2022/02/16 10:50:53;;;;;;;4.20;3.65;;;8.80;99.90;;;;;;4938373;28;20699;-73
2022/02/16 10:53:29;;;;;;;5.10;4.60;;;8.80;99.90;;;;;;4957383;28;20291;-74
2022/02/16 10:55:56;;;;;;;2.78;2.67;;;8.80;99.90;;;;;;4953694;28;20550;-74
2022/02/16 10:58:26;;;;;;;1.63;1.63;;;8.80;99.90;;;;;;4952729;28;20292;-74
2022/02/16 11:00:54;;;;;;;3.72;3.42;;;8.90;99.90;;;;;;4944427;28;20568;-73
2022/02/16 11:03:26;;;;;;;7.30;6.05;;;8.90;99.90;;;;;;4955196;28;20228;-74
2022/02/16 11:05:55;;;;;;;6.20;5.60;;;9.00;99.90;;;;;;4958665;28;20342;-74
2022/02/16 11:08:24;;;;;;;0.98;0.98;;;9.00;99.90;;;;;;4957320;28;20215;-74
2022/02/16 11:10:52;;;;;;;0.35;0.30;;;9.00;99.90;;;;;;4955016;28;20205;-73
2022/02/16 11:13:24;;;;;;;1.60;1.50;;;9.00;99.90;;;;;;4940859;28;20229;-73
2022/02/16 11:15:53;;;;;;;0.80;0.80;;;9.10;99.90;;;;;;4935724;29;20202;-73
2022/02/16 11:18:21;;;;;;;0.70;0.70;;;9.10;99.90;;;;;;4936944;28;20835;-74
2022/02/16 11:21:06;;;;;;;1.10;1.10;;;9.20;99.90;;;;;;4942685;28;20209;-73
2022/02/16 11:23:37;;;;;;;0.32;0.32;;;9.20;99.90;;;;;;4934464;29;20244;-74
2022/02/16 11:26:28;;;;;;;0.60;0.60;;;9.30;99.90;;;;;;4935499;29;20261;-73
2022/02/16 11:28:55;;;;;;;1.83;1.83;;;9.40;99.90;;;;;;4940926;29;20547;-72
2022/02/16 11:31:36;;;;;;;0.50;0.50;;;9.40;99.90;;;;;;4952825;28;20201;-74
2022/02/16 11:34:17;;;;;;;1.55;1.55;;;9.40;99.90;;;;;;4935195;29;20274;-73
2022/02/16 11:36:49;;;;;;;0.82;0.82;;;9.50;99.90;;;;;;4936023;28;20308;-72
2022/02/16 11:39:49;;;;;;;0.50;0.50;;;9.50;99.90;;;;;;4953922;29;20622;-73
2022/02/16 11:42:18;;;;;;;3.08;2.88;;;9.60;99.90;;;;;;4956437;28;20213;-73
2022/02/16 11:45:02;;;;;;;3.10;2.90;;;9.60;99.90;;;;;;4954138;29;20248;-71
2022/02/16 11:47:52;;;;;;;10.45;8.88;;;9.70;99.90;;;;;;4934586;29;20364;-74
2022/02/16 11:50:42;;;;;;;3.10;2.83;;;9.80;99.90;;;;;;4937816;29;20210;-74
2022/02/16 11:53:14;;;;;;;1.50;1.40;;;9.80;99.90;;;;;;4931320;28;20783;-74
2022/02/16 11:55:43;;;;;;;0.65;0.65;;;9.80;99.90;;;;;;4940996;29;20285;-74
2022/02/16 11:58:19;;;;;;;0.90;0.90;;;9.90;99.90;;;;;;4934620;29;20213;-74
2022/02/16 12:00:57;;;;;;;0.93;0.80;;;9.90;99.90;;;;;;4952233;28;20343;-71
2022/02/16 12:03:31;;;;;;;1.00;1.00;;;9.90;99.90;;;;;;4937018;28;20249;-73
2022/02/16 12:06:16;;;;;;;0.88;0.88;;;10.00;99.90;;;;;;4954735;28;20847;-73
2022/02/16 12:09:05;;;;;;;0.50;0.50;;;10.00;99.90;;;;;;4933672;29;20638;-74
2022/02/16 12:11:31;;;;;;;0.40;0.40;;;10.00;99.90;;;;;;4935975;28;20269;-73
2022/02/16 12:14:02;;;;;;;0.60;0.60;;;10.00;99.90;;;;;;4947066;29;20706;-74
2022/02/16 12:16:31;;;;;;;0.63;0.63;;;10.10;99.90;;;;;;4952998;28;20296;-75
2022/02/16 12:19:01;;;;;;;0.88;0.88;;;10.20;99.90;;;;;;4950049;29;20204;-75
2022/02/16 12:21:30;;;;;;;0.65;0.65;;;10.20;99.90;;;;;;4953707;28;20201;-74
2022/02/16 12:23:59;;;;;;;0.70;0.70;;;10.20;99.90;;;;;;4933347;29;20238;-73
2022/02/16 12:26:28;;;;;;;0.63;0.63;;;10.20;99.90;;;;;;4944264;28;20240;-73
2022/02/16 12:28:58;;;;;;;0.65;0.65;;;10.20;99.90;;;;;;4934201;29;20210;-74
2022/02/16 12:31:27;;;;;;;0.80;0.80;;;10.10;99.90;;;;;;4943530;28;20220;-74
2022/02/16 12:33:56;;;;;;;0.80;0.80;;;10.10;99.90;;;;;;4948594;28;20229;-75
2022/02/16 12:36:25;;;;;;;0.85;0.85;;;10.20;99.90;;;;;;4942023;28;20618;-75
2022/02/16 12:38:55;;;;;;;0.90;0.90;;;10.10;99.90;;;;;;4937876;28;20244;-75
2022/02/16 12:41:23;;;;;;;0.80;0.80;;;10.20;99.90;;;;;;4972472;28;20223;-74
2022/02/16 12:43:53;;;;;;;1.13;1.13;;;10.20;99.90;;;;;;4944763;28;20276;-75
2022/02/16 12:46:20;;;;;;;0.80;0.80;;;10.20;99.90;;;;;;4962052;28;20224;-75
2022/02/16 12:48:47;;;;;;;0.80;0.80;;;10.20;99.90;;;;;;4954082;28;20208;-74
2022/02/16 12:51:20;;;;;;;0.73;0.73;;;10.30;99.90;;;;;;4959618;28;20251;-75
2022/02/16 12:53:49;;;;;;;0.90;0.90;;;10.30;99.90;;;;;;4971147;28;20236;-73
2022/02/16 12:56:16;;;;;;;2.13;2.13;;;10.30;99.90;;;;;;4953226;28;20589;-75
2022/02/16 12:58:43;;;;;;;1.55;1.55;;;10.40;99.90;;;;;;4955247;28;20209;-74
2022/02/16 13:01:10;;;;;;;1.70;1.70;;;10.50;99.90;;;;;;4955497;28;20275;-74
2022/02/16 13:03:36;;;;;;;1.20;1.20;;;10.50;99.90;;;;;;4948085;28;20229;-74
2022/02/16 13:06:06;;;;;;;1.55;1.55;;;10.50;99.90;;;;;;4937025;29;20273;-74
2022/02/16 13:08:33;;;;;;;1.40;1.40;;;10.50;99.90;;;;;;4938301;29;20643;-74
2022/02/16 13:11:01;;;;;;;1.13;1.13;;;10.50;99.90;;;;;;4956337;28;20197;-75
2022/02/16 13:13:29;;;;;;;1.23;1.23;;;10.50;99.90;;;;;;4955545;28;20237;-75
2022/02/16 13:15:58;;;;;;;1.40;1.40;;;10.50;99.90;;;;;;4956255;28;20264;-75
2022/02/16 13:18:34;;;;;;;1.30;1.30;;;10.50;99.90;;;;;;4952242;28;20213;-76
2022/02/16 13:21:13;;;;;;;1.58;1.58;;;10.50;99.90;;;;;;4953472;28;20201;-75
2022/02/16 13:23:41;;;;;;;1.10;1.10;;;10.50;99.90;;;;;;4954823;28;20241;-75
2022/02/16 13:26:11;;;;;;;1.00;1.00;;;10.50;99.90;;;;;;4942760;28;20316;-75
2022/02/16 13:28:39;;;;;;;1.40;1.40;;;10.60;99.90;;;;;;4933737;29;20300;-75
2022/02/16 13:31:14;;;;;;;1.35;1.35;;;10.60;99.90;;;;;;4941419;29;20197;-74
2022/02/16 13:33:41;;;;;;;0.90;0.90;;;10.60;99.90;;;;;;4952360;28;20228;-75
2022/02/16 13:36:16;;;;;;;0.90;0.90;;;10.60;99.90;;;;;;4952765;28;20632;-73
2022/02/16 13:38:43;;;;;;;1.30;1.25;;;10.60;99.90;;;;;;4938210;28;20205;-74
2022/02/16 13:41:12;;;;;;;1.00;1.00;;;10.60;99.90;;;;;;4940921;29;20256;-76
2022/02/16 13:43:49;;;;;;;1.15;1.15;;;10.60;99.90;;;;;;4950533;28;20225;-75
2022/02/16 13:46:17;;;;;;;2.22;2.05;;;10.70;99.90;;;;;;4937937;28;20273;-75
2022/02/16 13:48:45;;;;;;;1.35;1.35;;;10.70;99.90;;;;;;4942423;28;20206;-75
2022/02/16 13:51:13;;;;;;;1.15;1.15;;;10.70;99.90;;;;;;4941140;29;20297;-72
2022/02/16 13:53:40;;;;;;;1.25;1.25;;;10.70;99.90;;;;;;4934843;29;20673;-73
2022/02/16 13:56:08;;;;;;;1.50;1.50;;;10.70;99.90;;;;;;4939949;28;20284;-74
2022/02/16 13:58:36;;;;;;;2.35;2.25;;;10.70;99.90;;;;;;4943590;29;20205;-72
2022/02/16 14:01:06;;;;;;;1.50;1.40;;;10.80;99.90;;;;;;4933696;28;20210;-73
2022/02/16 14:03:35;;;;;;;1.60;1.60;;;10.80;99.90;;;;;;4942565;28;20229;-73
2022/02/16 14:06:01;;;;;;;2.53;2.42;;;10.80;99.90;;;;;;4944580;28;20228;-74
2022/02/16 14:08:28;;;;;;;5.22;4.70;;;10.80;99.90;;;;;;4955201;28;20217;-74
2022/02/16 14:10:55;;;;;;;2.20;2.20;;;10.80;99.90;;;;;;4942979;28;20213;-74
2022/02/16 14:13:22;;;;;;;2.67;2.58;;;10.80;99.90;;;;;;4942092;28;21155;-75
2022/02/16 14:15:50;;;;;;;2.92;2.70;;;10.80;99.90;;;;;;4954171;28;20205;-75
2022/02/16 14:18:17;;;;;;;2.30;2.20;;;10.80;99.90;;;;;;4943846;29;20292;-74
2022/02/16 14:20:44;;;;;;;3.22;2.92;;;10.90;99.90;;;;;;4953991;28;20201;-75
2022/02/16 14:23:10;;;;;;;2.97;2.75;;;10.90;99.90;;;;;;4949663;28;20241;-75
2022/02/16 14:25:38;;;;;;;2.85;2.65;;;10.90;99.90;;;;;;4952450;29;20213;-73
2022/02/16 14:28:05;;;;;;;3.22;3.05;;;10.90;99.90;;;;;;4946846;28;20225;-76
2022/02/16 14:30:32;;;;;;;4.00;3.70;;;10.90;99.90;;;;;;4974416;28;20260;-74
2022/02/16 14:33:00;;;;;;;6.32;3.90;;;10.90;99.90;;;;;;4959892;28;20234;-73
2022/02/16 14:35:27;;;;;;;6.40;3.20;;;10.90;99.90;;;;;;4954117;29;20209;-73
2022/02/16 14:37:53;;;;;;;3.50;3.30;;;11.00;99.90;;;;;;4952947;28;20280;-72
2022/02/16 14:40:20;;;;;;;4.30;3.50;;;11.00;99.90;;;;;;4943064;28;20539;-73
2022/02/16 14:42:47;;;;;;;4.07;3.67;;;11.00;99.90;;;;;;4972347;28;20208;-73
2022/02/16 14:45:16;;;;;;;5.40;4.85;;;11.00;99.90;;;;;;4956677;28;20209;-74
2022/02/16 14:47:46;;;;;;;5.97;3.63;;;11.10;99.90;;;;;;4950065;28;20237;-75
2022/02/16 14:50:14;;;;;;;4.40;3.90;;;11.10;99.90;;;;;;4949328;28;20213;-74
2022/02/16 14:52:41;;;;;;;4.97;4.57;;;11.20;99.90;;;;;;4935645;28;20624;-73
2022/02/16 14:55:12;;;;;;;4.50;4.10;;;11.20;99.90;;;;;;4946566;28;20216;-72
2022/02/16 14:57:39;;;;;;;6.90;3.88;;;11.20;99.90;;;;;;4945802;28;20257;-73
2022/02/16 15:00:07;;;;;;;6.03;4.28;;;11.20;99.90;;;;;;4941773;28;20284;-73
2022/02/16 15:02:33;;;;;;;7.30;4.55;;;11.20;99.90;;;;;;4951000;29;20213;-74
2022/02/16 15:05:00;;;;;;;5.10;4.38;;;11.20;99.90;;;;;;4954909;28;20245;-72
2022/02/16 15:07:28;;;;;;;6.03;5.53;;;11.20;99.90;;;;;;4947594;28;20267;-73
2022/02/16 15:09:55;;;;;;;4.07;3.75;;;11.20;99.90;;;;;;4949381;29;20272;-74
2022/02/16 15:12:22;;;;;;;4.60;4.20;;;11.20;99.90;;;;;;4952777;28;20205;-73
2022/02/16 15:14:48;;;;;;;9.02;5.47;;;11.20;99.90;;;;;;4954801;28;20237;-73
2022/02/16 15:17:15;;;;;;;8.80;5.90;;;11.20;99.90;;;;;;4950834;28;20547;-73
2022/02/16 15:19:44;;;;;;;6.05;4.60;;;11.20;99.90;;;;;;4954556;28;20220;-73
2022/02/16 15:22:11;;;;;;;8.63;5.57;;;11.20;99.90;;;;;;4953148;28;20215;-73
2022/02/16 15:24:39;;;;;;;5.78;4.82;;;11.20;99.90;;;;;;4946847;28;20324;-74
2022/02/16 15:27:07;;;;;;;5.68;5.00;;;11.20;99.90;;;;;;4942879;28;20237;-74
2022/02/16 15:29:33;;;;;;;8.00;5.47;;;11.20;99.90;;;;;;4946775;28;20234;-74
2022/02/16 15:32:00;;;;;;;7.40;5.05;;;11.20;99.90;;;;;;4950165;29;20212;-74
2022/02/16 15:34:27;;;;;;;5.57;5.07;;;11.20;99.90;;;;;;4952705;28;20288;-73
2022/02/16 15:36:54;;;;;;;6.88;5.97;;;11.20;99.90;;;;;;4953604;28;20348;-74
2022/02/16 15:39:22;;;;;;;8.32;6.47;;;11.20;99.90;;;;;;4939735;28;20281;-71
2022/02/16 15:41:50;;;;;;;24.77;17.75;;;11.20;99.90;;;;;;4946452;28;20209;-71
2022/02/16 15:44:17;;;;;;;5.72;4.90;;;11.20;99.90;;;;;;4951077;28;20288;-70
2022/02/16 15:46:43;;;;;;;8.65;6.28;;;11.20;99.90;;;;;;4943517;28;20225;-69
2022/02/16 15:49:11;;;;;;;7.03;5.40;;;11.20;99.90;;;;;;4953647;28;20264;-70
2022/02/16 15:51:38;;;;;;;7.07;6.18;;;11.30;99.90;;;;;;4953547;28;20211;-69
2022/02/16 15:54:05;;;;;;;9.25;7.05;;;11.30;99.90;;;;;;4936836;28;20590;-71
2022/02/16 15:56:32;;;;;;;6.78;5.57;;;11.30;99.90;;;;;;4938698;29;20232;-70
2022/02/16 15:59:00;;;;;;;8.65;7.15;;;11.30;99.90;;;;;;4948545;28;20300;-70
2022/02/16 16:01:26;;;;;;;8.07;6.40;;;11.30;99.90;;;;;;4953550;28;20637;-69
2022/02/16 16:03:53;;;;;;;6.45;5.80;;;11.30;99.90;;;;;;4954159;28;20523;-70
2022/02/16 16:06:20;;;;;;;8.02;5.90;;;11.30;99.90;;;;;;4954190;28;20206;-72
2022/02/16 16:08:47;;;;;;;5.80;5.25;;;11.40;99.90;;;;;;4953249;29;20226;-71
2022/02/16 16:11:14;;;;;;;6.30;5.60;;;11.40;99.90;;;;;;4951765;28;20205;-71
2022/02/16 16:13:41;;;;;;;17.30;8.45;;;11.40;99.90;;;;;;4951590;28;20637;-72
2022/02/16 16:16:09;;;;;;;9.70;5.70;;;11.40;99.90;;;;;;4950050;29;20205;-71
2022/02/16 16:18:36;;;;;;;6.13;5.50;;;11.40;99.90;;;;;;4952607;28;20237;-70
2022/02/16 16:21:03;;;;;;;6.90;5.50;;;11.40;99.90;;;;;;4953972;28;20209;-70
2022/02/16 16:23:30;;;;;;;10.18;6.88;;;11.40;99.90;;;;;;4946342;28;20263;-69
2022/02/16 16:25:56;;;;;;;5.10;4.60;;;11.40;99.90;;;;;;4953784;28;20355;-70
2022/02/16 16:28:23;;;;;;;7.80;6.00;;;11.40;99.90;;;;;;4966609;28;20220;-71
2022/02/16 16:30:50;;;;;;;6.15;5.40;;;11.40;99.90;;;;;;4941315;28;20213;-71
2022/02/16 16:33:18;;;;;;;5.95;5.40;;;11.40;99.90;;;;;;4951016;28;20281;-71
2022/02/16 16:35:45;;;;;;;6.47;4.95;;;11.50;99.90;;;;;;4944872;28;20209;-69
2022/02/16 16:38:12;;;;;;;5.65;5.10;;;11.50;99.90;;;;;;4954956;28;20293;-70
2022/02/16 16:40:38;;;;;;;6.60;4.90;;;11.50;99.90;;;;;;4960300;28;20220;-71
2022/02/16 16:43:06;;;;;;;5.85;4.50;;;11.50;99.90;;;;;;4941480;28;20303;-70
2022/02/16 16:45:34;;;;;;;4.80;4.40;;;11.50;99.90;;;;;;4953090;28;20301;-70
2022/02/16 16:48:01;;;;;;;9.02;5.03;;;11.50;99.90;;;;;;4946894;28;20725;-70
2022/02/16 16:50:29;;;;;;;5.68;5.25;;;11.50;99.90;;;;;;4946508;29;20213;-70
2022/02/16 16:52:56;;;;;;;5.55;4.25;;;11.50;99.90;;;;;;4945545;28;20201;-70
2022/02/16 16:55:23;;;;;;;5.72;5.22;;;11.50;99.90;;;;;;4953438;28;20275;-71
2022/02/16 16:57:50;;;;;;;4.53;4.22;;;11.60;99.90;;;;;;4952756;28;20217;-70
2022/02/16 17:00:25;;;;;;;6.07;4.15;;;11.60;99.90;;;;;;4952612;28;20220;-71
2022/02/16 17:02:53;;;;;;;5.50;5.07;;;11.60;99.90;;;;;;4939208;28;20722;-70
2022/02/16 17:05:19;;;;;;;7.10;4.15;;;11.60;99.90;;;;;;4935981;28;20264;-70
2022/02/16 17:07:47;;;;;;;4.93;4.40;;;11.60;99.90;;;;;;4943214;28;20752;-71
2022/02/16 17:10:14;;;;;;;6.38;4.25;;;11.60;99.90;;;;;;4943901;28;20285;-70
2022/02/16 17:12:41;;;;;;;5.25;3.83;;;11.70;99.90;;;;;;4952110;28;20264;-70
2022/02/16 17:15:08;;;;;;;4.13;3.80;;;11.70;99.90;;;;;;4952765;28;20260;-70
2022/02/16 17:17:35;;;;;;;5.97;4.32;;;11.70;99.90;;;;;;4953016;28;20694;-68
2022/02/16 17:20:02;;;;;;;4.68;4.00;;;11.70;99.90;;;;;;4946292;28;20248;-69
2022/02/16 17:22:29;;;;;;;6.38;4.55;;;11.70;99.90;;;;;;4945398;28;20213;-69
2022/02/16 17:24:57;;;;;;;8.52;4.45;;;11.70;99.90;;;;;;4948853;28;20718;-71
2022/02/16 17:27:23;;;;;;;4.32;3.90;;;11.60;99.90;;;;;;4934226;28;20226;-69
2022/02/16 17:29:50;;;;;;;10.63;4.13;;;11.70;99.90;;;;;;4933140;29;20260;-70
2022/02/16 17:32:17;;;;;;;4.50;4.18;;;11.60;99.90;;;;;;4933630;28;20770;-70
2022/02/16 17:34:44;;;;;;;6.55;4.53;;;11.60;99.90;;;;;;4940731;28;20292;-70
2022/02/16 17:37:11;;;;;;;4.05;3.85;;;11.60;99.90;;;;;;4939765;28;20202;-69
2022/02/16 17:39:38;;;;;;;6.25;3.90;;;11.60;99.90;;;;;;4944122;29;20252;-70
2022/02/16 17:42:06;;;;;;;4.85;3.92;;;11.60;99.90;;;;;;4953420;29;20279;-70
2022/02/16 17:44:43;;;;;;;5.07;4.55;;;11.60;99.90;;;;;;4952751;28;20253;-70
2022/02/16 17:47:10;;;;;;;6.53;4.57;;;11.60;99.90;;;;;;4951519;28;20323;-70
2022/02/16 17:49:37;;;;;;;4.70;3.42;;;11.60;99.90;;;;;;4945547;28;20675;-70
2022/02/16 17:52:04;;;;;;;9.30;4.65;;;11.60;99.90;;;;;;4955978;28;20212;-70
2022/02/16 17:54:31;;;;;;;5.10;3.63;;;11.60;99.90;;;;;;4947086;28;20289;-70
2022/02/16 17:57:01;;;;;;;14.05;4.30;;;11.70;99.90;;;;;;4952265;28;20230;-67
2022/02/16 17:59:29;;;;;;;6.85;3.95;;;11.70;99.90;;;;;;4951036;28;20214;-68